<?xml version="1.0" encoding="UTF-8" standalone="no" ?>
<gpx xmlns="http://www.topografix.com/GPX/1/1" xmlns:xsi="http://www.w3.org/2001/XMLSchema-instance" xsi:schemaLocation="http://www.topografix.com/GPX/1/1 http://www.topografix.com/GPX/1/1/gpx.xsd" version="1.1" creator="VisuGPX - https://www.visugpx.com">
  <metadata>
    <name>Traversée du Grand Rocher au départ du col du Barioz</name>
    <desc><![CDATA[Traversée du Grand Rocher au départ du col du Barioz en VTT]]></desc>
  </metadata>
  <trk>
    <name><![CDATA[Tracé]]></name>
    <trkseg>
      <trkpt lat="45.33131" lon="6.02707">
        <ele>977.8</ele>
        <time>2013-09-20T07:54:04Z</time>
      </trkpt>
      <trkpt lat="45.3313" lon="6.02709">
        <ele>1045.57</ele>
        <time>2013-09-20T07:56:55Z</time>
      </trkpt>
      <trkpt lat="45.33122" lon="6.02719">
        <ele>1046.05</ele>
        <time>2013-09-20T08:01:52Z</time>
      </trkpt>
      <trkpt lat="45.33145" lon="6.02774">
        <ele>1049.9</ele>
        <time>2013-09-20T08:02:19Z</time>
      </trkpt>
      <trkpt lat="45.33186" lon="6.02816">
        <ele>1054.7</ele>
        <time>2013-09-20T08:02:53Z</time>
      </trkpt>
      <trkpt lat="45.33229" lon="6.02897">
        <ele>1060.95</ele>
        <time>2013-09-20T08:03:32Z</time>
      </trkpt>
      <trkpt lat="45.33242" lon="6.02973">
        <ele>1065.28</ele>
        <time>2013-09-20T08:04:00Z</time>
      </trkpt>
      <trkpt lat="45.33258" lon="6.03039">
        <ele>1068.64</ele>
        <time>2013-09-20T08:04:25Z</time>
      </trkpt>
      <trkpt lat="45.33267" lon="6.03104">
        <ele>1072.49</ele>
        <time>2013-09-20T08:04:49Z</time>
      </trkpt>
      <trkpt lat="45.33252" lon="6.03165">
        <ele>1076.33</ele>
        <time>2013-09-20T08:05:15Z</time>
      </trkpt>
      <trkpt lat="45.33252" lon="6.03229">
        <ele>1081.62</ele>
        <time>2013-09-20T08:05:44Z</time>
      </trkpt>
      <trkpt lat="45.33255" lon="6.03294">
        <ele>1085.47</ele>
        <time>2013-09-20T08:06:12Z</time>
      </trkpt>
      <trkpt lat="45.33209" lon="6.03303">
        <ele>1089.79</ele>
        <time>2013-09-20T08:06:41Z</time>
      </trkpt>
      <trkpt lat="45.33158" lon="6.03298">
        <ele>1094.6</ele>
        <time>2013-09-20T08:07:11Z</time>
      </trkpt>
      <trkpt lat="45.33116" lon="6.03327">
        <ele>1098.92</ele>
        <time>2013-09-20T08:07:37Z</time>
      </trkpt>
      <trkpt lat="45.33087" lon="6.03381">
        <ele>1103.73</ele>
        <time>2013-09-20T08:08:07Z</time>
      </trkpt>
      <trkpt lat="45.33047" lon="6.0343">
        <ele>1108.06</ele>
        <time>2013-09-20T08:08:35Z</time>
      </trkpt>
      <trkpt lat="45.33041" lon="6.03472">
        <ele>1109.5</ele>
        <time>2013-09-20T08:09:07Z</time>
      </trkpt>
      <trkpt lat="45.33047" lon="6.03397">
        <ele>1108.06</ele>
        <time>2013-09-20T08:09:25Z</time>
      </trkpt>
      <trkpt lat="45.33054" lon="6.03324">
        <ele>1111.42</ele>
        <time>2013-09-20T08:09:48Z</time>
      </trkpt>
      <trkpt lat="45.33023" lon="6.03267">
        <ele>1116.71</ele>
        <time>2013-09-20T08:10:16Z</time>
      </trkpt>
      <trkpt lat="45.32992" lon="6.03217">
        <ele>1121.52</ele>
        <time>2013-09-20T08:10:45Z</time>
      </trkpt>
      <trkpt lat="45.32943" lon="6.03208">
        <ele>1125.36</ele>
        <time>2013-09-20T08:11:14Z</time>
      </trkpt>
      <trkpt lat="45.32893" lon="6.03185">
        <ele>1129.69</ele>
        <time>2013-09-20T08:11:43Z</time>
      </trkpt>
      <trkpt lat="45.32841" lon="6.03196">
        <ele>1135.45</ele>
        <time>2013-09-20T08:12:20Z</time>
      </trkpt>
      <trkpt lat="45.32773" lon="6.03264">
        <ele>1142.66</ele>
        <time>2013-09-20T08:13:06Z</time>
      </trkpt>
      <trkpt lat="45.32725" lon="6.03288">
        <ele>1147.47</ele>
        <time>2013-09-20T08:13:36Z</time>
      </trkpt>
      <trkpt lat="45.32669" lon="6.03308">
        <ele>1153.72</ele>
        <time>2013-09-20T08:14:16Z</time>
      </trkpt>
      <trkpt lat="45.32609" lon="6.03362">
        <ele>1159.97</ele>
        <time>2013-09-20T08:16:41Z</time>
      </trkpt>
      <trkpt lat="45.32561" lon="6.03354">
        <ele>1164.29</ele>
        <time>2013-09-20T08:17:13Z</time>
      </trkpt>
      <trkpt lat="45.32511" lon="6.03345">
        <ele>1168.14</ele>
        <time>2013-09-20T08:17:42Z</time>
      </trkpt>
      <trkpt lat="45.32462" lon="6.03348">
        <ele>1172.47</ele>
        <time>2013-09-20T08:18:11Z</time>
      </trkpt>
      <trkpt lat="45.32409" lon="6.03347">
        <ele>1176.79</ele>
        <time>2013-09-20T08:18:42Z</time>
      </trkpt>
      <trkpt lat="45.32352" lon="6.03351">
        <ele>1182.08</ele>
        <time>2013-09-20T08:19:19Z</time>
      </trkpt>
      <trkpt lat="45.32292" lon="6.03384">
        <ele>1187.85</ele>
        <time>2013-09-20T08:19:57Z</time>
      </trkpt>
      <trkpt lat="45.32274" lon="6.03452">
        <ele>1192.17</ele>
        <time>2013-09-20T08:20:28Z</time>
      </trkpt>
      <trkpt lat="45.32257" lon="6.03505">
        <ele>1196.5</ele>
        <time>2013-09-20T08:20:59Z</time>
      </trkpt>
      <trkpt lat="45.32213" lon="6.03552">
        <ele>1198.9</ele>
        <time>2013-09-20T08:21:26Z</time>
      </trkpt>
      <trkpt lat="45.32168" lon="6.03582">
        <ele>1201.79</ele>
        <time>2013-09-20T08:21:51Z</time>
      </trkpt>
      <trkpt lat="45.32129" lon="6.03628">
        <ele>1205.15</ele>
        <time>2013-09-20T08:22:15Z</time>
      </trkpt>
      <trkpt lat="45.32098" lon="6.0368">
        <ele>1208.51</ele>
        <time>2013-09-20T08:22:41Z</time>
      </trkpt>
      <trkpt lat="45.32066" lon="6.03732">
        <ele>1212.36</ele>
        <time>2013-09-20T08:23:07Z</time>
      </trkpt>
      <trkpt lat="45.32017" lon="6.03778">
        <ele>1217.65</ele>
        <time>2013-09-20T08:23:47Z</time>
      </trkpt>
      <trkpt lat="45.3197" lon="6.03802">
        <ele>1220.05</ele>
        <time>2013-09-20T08:24:12Z</time>
      </trkpt>
      <trkpt lat="45.31931" lon="6.03767">
        <ele>1222.45</ele>
        <time>2013-09-20T08:24:35Z</time>
      </trkpt>
      <trkpt lat="45.31893" lon="6.03725">
        <ele>1224.86</ele>
        <time>2013-09-20T08:24:59Z</time>
      </trkpt>
      <trkpt lat="45.3186" lon="6.03677">
        <ele>1226.78</ele>
        <time>2013-09-20T08:25:20Z</time>
      </trkpt>
      <trkpt lat="45.31827" lon="6.03622">
        <ele>1229.66</ele>
        <time>2013-09-20T08:25:42Z</time>
      </trkpt>
      <trkpt lat="45.31787" lon="6.03589">
        <ele>1232.07</ele>
        <time>2013-09-20T08:26:05Z</time>
      </trkpt>
      <trkpt lat="45.31745" lon="6.0361">
        <ele>1234.95</ele>
        <time>2013-09-20T08:26:30Z</time>
      </trkpt>
      <trkpt lat="45.31708" lon="6.03599">
        <ele>1238.32</ele>
        <time>2013-09-20T08:26:56Z</time>
      </trkpt>
      <trkpt lat="45.31678" lon="6.0355">
        <ele>1241.68</ele>
        <time>2013-09-20T08:27:23Z</time>
      </trkpt>
      <trkpt lat="45.31635" lon="6.0355">
        <ele>1245.04</ele>
        <time>2013-09-20T08:27:49Z</time>
      </trkpt>
      <trkpt lat="45.31586" lon="6.0354">
        <ele>1250.81</ele>
        <time>2013-09-20T08:28:26Z</time>
      </trkpt>
      <trkpt lat="45.31536" lon="6.03536">
        <ele>1255.62</ele>
        <time>2013-09-20T08:29:00Z</time>
      </trkpt>
      <trkpt lat="45.31487" lon="6.03507">
        <ele>1259.94</ele>
        <time>2013-09-20T08:29:34Z</time>
      </trkpt>
      <trkpt lat="45.31439" lon="6.03506">
        <ele>1265.23</ele>
        <time>2013-09-20T08:30:11Z</time>
      </trkpt>
      <trkpt lat="45.31389" lon="6.03493">
        <ele>1270.52</ele>
        <time>2013-09-20T08:30:46Z</time>
      </trkpt>
      <trkpt lat="45.31348" lon="6.03451">
        <ele>1275.81</ele>
        <time>2013-09-20T08:31:20Z</time>
      </trkpt>
      <trkpt lat="45.31302" lon="6.03446">
        <ele>1280.13</ele>
        <time>2013-09-20T08:31:49Z</time>
      </trkpt>
      <trkpt lat="45.31256" lon="6.03426">
        <ele>1284.94</ele>
        <time>2013-09-20T08:32:21Z</time>
      </trkpt>
      <trkpt lat="45.3121" lon="6.03381">
        <ele>1289.27</ele>
        <time>2013-09-20T08:32:56Z</time>
      </trkpt>
      <trkpt lat="45.31177" lon="6.03333">
        <ele>1295.51</ele>
        <time>2013-09-20T08:33:33Z</time>
      </trkpt>
      <trkpt lat="45.31136" lon="6.03297">
        <ele>1300.8</ele>
        <time>2013-09-20T08:34:08Z</time>
      </trkpt>
      <trkpt lat="45.31093" lon="6.03269">
        <ele>1305.13</ele>
        <time>2013-09-20T08:34:43Z</time>
      </trkpt>
      <trkpt lat="45.3105" lon="6.03241">
        <ele>1310.41</ele>
        <time>2013-09-20T08:35:17Z</time>
      </trkpt>
      <trkpt lat="45.31" lon="6.03215">
        <ele>1315.22</ele>
        <time>2013-09-20T08:35:52Z</time>
      </trkpt>
      <trkpt lat="45.30965" lon="6.03167">
        <ele>1319.55</ele>
        <time>2013-09-20T08:36:27Z</time>
      </trkpt>
      <trkpt lat="45.30939" lon="6.03118">
        <ele>1323.87</ele>
        <time>2013-09-20T08:37:01Z</time>
      </trkpt>
      <trkpt lat="45.30899" lon="6.03074">
        <ele>1328.2</ele>
        <time>2013-09-20T08:37:33Z</time>
      </trkpt>
      <trkpt lat="45.30855" lon="6.03048">
        <ele>1333.01</ele>
        <time>2013-09-20T08:38:09Z</time>
      </trkpt>
      <trkpt lat="45.30804" lon="6.0301">
        <ele>1338.29</ele>
        <time>2013-09-20T08:38:46Z</time>
      </trkpt>
      <trkpt lat="45.30751" lon="6.03006">
        <ele>1343.58</ele>
        <time>2013-09-20T08:39:23Z</time>
      </trkpt>
      <trkpt lat="45.30709" lon="6.03022">
        <ele>1347.91</ele>
        <time>2013-09-20T08:41:46Z</time>
      </trkpt>
      <trkpt lat="45.30675" lon="6.02984">
        <ele>1350.79</ele>
        <time>2013-09-20T08:42:16Z</time>
      </trkpt>
      <trkpt lat="45.30624" lon="6.02967">
        <ele>1354.63</ele>
        <time>2013-09-20T08:42:47Z</time>
      </trkpt>
      <trkpt lat="45.30572" lon="6.02951">
        <ele>1359.92</ele>
        <time>2013-09-20T08:43:23Z</time>
      </trkpt>
      <trkpt lat="45.30516" lon="6.02923">
        <ele>1365.69</ele>
        <time>2013-09-20T08:44:00Z</time>
      </trkpt>
      <trkpt lat="45.30458" lon="6.02912">
        <ele>1369.54</ele>
        <time>2013-09-20T08:44:28Z</time>
      </trkpt>
      <trkpt lat="45.30408" lon="6.02942">
        <ele>1373.86</ele>
        <time>2013-09-20T08:45:01Z</time>
      </trkpt>
      <trkpt lat="45.30367" lon="6.03">
        <ele>1378.67</ele>
        <time>2013-09-20T08:45:32Z</time>
      </trkpt>
      <trkpt lat="45.3032" lon="6.03018">
        <ele>1382.99</ele>
        <time>2013-09-20T08:45:59Z</time>
      </trkpt>
      <trkpt lat="45.30263" lon="6.03067">
        <ele>1387.8</ele>
        <time>2013-09-20T08:46:40Z</time>
      </trkpt>
      <trkpt lat="45.30218" lon="6.03099">
        <ele>1392.61</ele>
        <time>2013-09-20T08:47:11Z</time>
      </trkpt>
      <trkpt lat="45.3017" lon="6.03073">
        <ele>1396.45</ele>
        <time>2013-09-20T08:47:38Z</time>
      </trkpt>
      <trkpt lat="45.30126" lon="6.03023">
        <ele>1399.82</ele>
        <time>2013-09-20T08:48:05Z</time>
      </trkpt>
      <trkpt lat="45.30098" lon="6.02968">
        <ele>1403.18</ele>
        <time>2013-09-20T08:48:29Z</time>
      </trkpt>
      <trkpt lat="45.30074" lon="6.02911">
        <ele>1406.55</ele>
        <time>2013-09-20T08:48:55Z</time>
      </trkpt>
      <trkpt lat="45.30032" lon="6.029">
        <ele>1409.43</ele>
        <time>2013-09-20T08:49:19Z</time>
      </trkpt>
      <trkpt lat="45.29983" lon="6.02884">
        <ele>1413.28</ele>
        <time>2013-09-20T08:49:51Z</time>
      </trkpt>
      <trkpt lat="45.29931" lon="6.02853">
        <ele>1417.12</ele>
        <time>2013-09-20T08:50:22Z</time>
      </trkpt>
      <trkpt lat="45.29881" lon="6.0282">
        <ele>1420</ele>
        <time>2013-09-20T08:50:51Z</time>
      </trkpt>
      <trkpt lat="45.29826" lon="6.02794">
        <ele>1423.85</ele>
        <time>2013-09-20T08:51:18Z</time>
      </trkpt>
      <trkpt lat="45.29773" lon="6.02761">
        <ele>1428.66</ele>
        <time>2013-09-20T08:51:53Z</time>
      </trkpt>
      <trkpt lat="45.29726" lon="6.02739">
        <ele>1432.5</ele>
        <time>2013-09-20T08:52:24Z</time>
      </trkpt>
      <trkpt lat="45.29676" lon="6.02723">
        <ele>1436.83</ele>
        <time>2013-09-20T08:52:57Z</time>
      </trkpt>
      <trkpt lat="45.29625" lon="6.027">
        <ele>1441.63</ele>
        <time>2013-09-20T08:53:29Z</time>
      </trkpt>
      <trkpt lat="45.29576" lon="6.02654">
        <ele>1446.44</ele>
        <time>2013-09-20T08:54:03Z</time>
      </trkpt>
      <trkpt lat="45.29538" lon="6.02604">
        <ele>1450.77</ele>
        <time>2013-09-20T08:54:34Z</time>
      </trkpt>
      <trkpt lat="45.29491" lon="6.02592">
        <ele>1455.09</ele>
        <time>2013-09-20T08:55:07Z</time>
      </trkpt>
      <trkpt lat="45.29452" lon="6.02632">
        <ele>1459.42</ele>
        <time>2013-09-20T08:55:33Z</time>
      </trkpt>
      <trkpt lat="45.2943" lon="6.02667">
        <ele>1463.26</ele>
        <time>2013-09-20T08:56:06Z</time>
      </trkpt>
      <trkpt lat="45.29486" lon="6.02674">
        <ele>1468.55</ele>
        <time>2013-09-20T08:56:44Z</time>
      </trkpt>
      <trkpt lat="45.29538" lon="6.02706">
        <ele>1473.36</ele>
        <time>2013-09-20T08:57:18Z</time>
      </trkpt>
      <trkpt lat="45.29501" lon="6.02715">
        <ele>1477.2</ele>
        <time>2013-09-20T08:57:48Z</time>
      </trkpt>
      <trkpt lat="45.29452" lon="6.02717">
        <ele>1481.53</ele>
        <time>2013-09-20T08:58:21Z</time>
      </trkpt>
      <trkpt lat="45.29402" lon="6.02736">
        <ele>1484.89</ele>
        <time>2013-09-20T08:58:49Z</time>
      </trkpt>
      <trkpt lat="45.29347" lon="6.02758">
        <ele>1485.37</ele>
        <time>2013-09-20T08:59:10Z</time>
      </trkpt>
      <trkpt lat="45.29308" lon="6.02806">
        <ele>1484.41</ele>
        <time>2013-09-20T08:59:31Z</time>
      </trkpt>
      <trkpt lat="45.29266" lon="6.02841">
        <ele>1485.37</ele>
        <time>2013-09-20T08:59:52Z</time>
      </trkpt>
      <trkpt lat="45.2922" lon="6.02862">
        <ele>1484.41</ele>
        <time>2013-09-20T09:00:12Z</time>
      </trkpt>
      <trkpt lat="45.29177" lon="6.02896">
        <ele>1483.45</ele>
        <time>2013-09-20T09:00:29Z</time>
      </trkpt>
      <trkpt lat="45.29135" lon="6.02929">
        <ele>1483.93</ele>
        <time>2013-09-20T09:00:47Z</time>
      </trkpt>
      <trkpt lat="45.29097" lon="6.02976">
        <ele>1484.89</ele>
        <time>2013-09-20T09:01:07Z</time>
      </trkpt>
      <trkpt lat="45.29063" lon="6.0303">
        <ele>1490.18</ele>
        <time>2013-09-20T09:01:39Z</time>
      </trkpt>
      <trkpt lat="45.29021" lon="6.03064">
        <ele>1494.03</ele>
        <time>2013-09-20T09:02:11Z</time>
      </trkpt>
      <trkpt lat="45.28967" lon="6.03075">
        <ele>1492.58</ele>
        <time>2013-09-20T09:02:29Z</time>
      </trkpt>
      <trkpt lat="45.28927" lon="6.03118">
        <ele>1490.66</ele>
        <time>2013-09-20T09:02:41Z</time>
      </trkpt>
      <trkpt lat="45.2888" lon="6.03142">
        <ele>1488.74</ele>
        <time>2013-09-20T09:02:52Z</time>
      </trkpt>
      <trkpt lat="45.28823" lon="6.03161">
        <ele>1487.78</ele>
        <time>2013-09-20T09:03:04Z</time>
      </trkpt>
      <trkpt lat="45.28776" lon="6.03147">
        <ele>1487.78</ele>
        <time>2013-09-20T09:03:19Z</time>
      </trkpt>
      <trkpt lat="45.2873" lon="6.03125">
        <ele>1486.34</ele>
        <time>2013-09-20T09:03:38Z</time>
      </trkpt>
      <trkpt lat="45.28688" lon="6.03108">
        <ele>1482.01</ele>
        <time>2013-09-20T09:03:50Z</time>
      </trkpt>
      <trkpt lat="45.28681" lon="6.03045">
        <ele>1476.72</ele>
        <time>2013-09-20T09:04:00Z</time>
      </trkpt>
      <trkpt lat="45.28698" lon="6.02988">
        <ele>1471.92</ele>
        <time>2013-09-20T09:04:11Z</time>
      </trkpt>
      <trkpt lat="45.28715" lon="6.0293">
        <ele>1469.51</ele>
        <time>2013-09-20T09:04:22Z</time>
      </trkpt>
      <trkpt lat="45.28711" lon="6.02867">
        <ele>1467.11</ele>
        <time>2013-09-20T09:04:31Z</time>
      </trkpt>
      <trkpt lat="45.28703" lon="6.02804">
        <ele>1467.11</ele>
        <time>2013-09-20T09:04:44Z</time>
      </trkpt>
      <trkpt lat="45.28722" lon="6.02736">
        <ele>1465.19</ele>
        <time>2013-09-20T09:04:58Z</time>
      </trkpt>
      <trkpt lat="45.28735" lon="6.0267">
        <ele>1460.86</ele>
        <time>2013-09-20T09:05:08Z</time>
      </trkpt>
      <trkpt lat="45.28701" lon="6.02603">
        <ele>1458.46</ele>
        <time>2013-09-20T09:05:20Z</time>
      </trkpt>
      <trkpt lat="45.28676" lon="6.02542">
        <ele>1457.5</ele>
        <time>2013-09-20T09:05:30Z</time>
      </trkpt>
      <trkpt lat="45.28638" lon="6.02503">
        <ele>1460.86</ele>
        <time>2013-09-20T09:05:49Z</time>
      </trkpt>
      <trkpt lat="45.28615" lon="6.02447">
        <ele>1464.23</ele>
        <time>2013-09-20T09:06:12Z</time>
      </trkpt>
      <trkpt lat="45.28574" lon="6.02406">
        <ele>1467.59</ele>
        <time>2013-09-20T09:06:38Z</time>
      </trkpt>
      <trkpt lat="45.28528" lon="6.02401">
        <ele>1471.44</ele>
        <time>2013-09-20T09:07:07Z</time>
      </trkpt>
      <trkpt lat="45.28477" lon="6.02406">
        <ele>1475.76</ele>
        <time>2013-09-20T09:07:41Z</time>
      </trkpt>
      <trkpt lat="45.28424" lon="6.02425">
        <ele>1479.13</ele>
        <time>2013-09-20T09:08:10Z</time>
      </trkpt>
      <trkpt lat="45.2837" lon="6.02449">
        <ele>1482.97</ele>
        <time>2013-09-20T09:08:42Z</time>
      </trkpt>
      <trkpt lat="45.28316" lon="6.02465">
        <ele>1488.74</ele>
        <time>2013-09-20T09:09:21Z</time>
      </trkpt>
      <trkpt lat="45.28262" lon="6.02477">
        <ele>1493.06</ele>
        <time>2013-09-20T09:11:03Z</time>
      </trkpt>
      <trkpt lat="45.28215" lon="6.02502">
        <ele>1495.95</ele>
        <time>2013-09-20T09:11:36Z</time>
      </trkpt>
      <trkpt lat="45.28161" lon="6.02488">
        <ele>1496.43</ele>
        <time>2013-09-20T09:11:58Z</time>
      </trkpt>
      <trkpt lat="45.28112" lon="6.02501">
        <ele>1499.79</ele>
        <time>2013-09-20T09:12:23Z</time>
      </trkpt>
      <trkpt lat="45.2806" lon="6.02483">
        <ele>1505.56</ele>
        <time>2013-09-20T09:12:59Z</time>
      </trkpt>
      <trkpt lat="45.28003" lon="6.02446">
        <ele>1508.93</ele>
        <time>2013-09-20T09:13:29Z</time>
      </trkpt>
      <trkpt lat="45.27956" lon="6.02436">
        <ele>1513.73</ele>
        <time>2013-09-20T09:14:01Z</time>
      </trkpt>
      <trkpt lat="45.279" lon="6.02426">
        <ele>1512.77</ele>
        <time>2013-09-20T09:14:34Z</time>
      </trkpt>
      <trkpt lat="45.27854" lon="6.02444">
        <ele>1509.41</ele>
        <time>2013-09-20T09:14:57Z</time>
      </trkpt>
      <trkpt lat="45.27842" lon="6.02394">
        <ele>1508.45</ele>
        <time>2013-09-20T09:15:16Z</time>
      </trkpt>
      <trkpt lat="45.27817" lon="6.02329">
        <ele>1506.04</ele>
        <time>2013-09-20T09:17:16Z</time>
      </trkpt>
      <trkpt lat="45.27805" lon="6.02264">
        <ele>1502.2</ele>
        <time>2013-09-20T09:17:28Z</time>
      </trkpt>
      <trkpt lat="45.27802" lon="6.02196">
        <ele>1499.79</ele>
        <time>2013-09-20T09:17:38Z</time>
      </trkpt>
      <trkpt lat="45.27796" lon="6.02131">
        <ele>1497.39</ele>
        <time>2013-09-20T09:17:46Z</time>
      </trkpt>
      <trkpt lat="45.27771" lon="6.02075">
        <ele>1498.35</ele>
        <time>2013-09-20T09:18:00Z</time>
      </trkpt>
      <trkpt lat="45.27739" lon="6.02025">
        <ele>1500.76</ele>
        <time>2013-09-20T09:18:18Z</time>
      </trkpt>
      <trkpt lat="45.27719" lon="6.01954">
        <ele>1504.6</ele>
        <time>2013-09-20T09:18:47Z</time>
      </trkpt>
      <trkpt lat="45.27688" lon="6.01892">
        <ele>1508.45</ele>
        <time>2013-09-20T09:19:18Z</time>
      </trkpt>
      <trkpt lat="45.27658" lon="6.01826">
        <ele>1512.77</ele>
        <time>2013-09-20T09:19:49Z</time>
      </trkpt>
      <trkpt lat="45.27648" lon="6.01751">
        <ele>1519.5</ele>
        <time>2013-09-20T09:20:26Z</time>
      </trkpt>
      <trkpt lat="45.27632" lon="6.01677">
        <ele>1523.83</ele>
        <time>2013-09-20T09:21:03Z</time>
      </trkpt>
      <trkpt lat="45.27593" lon="6.01681">
        <ele>1528.63</ele>
        <time>2013-09-20T09:21:38Z</time>
      </trkpt>
      <trkpt lat="45.2756" lon="6.01733">
        <ele>1534.4</ele>
        <time>2013-09-20T09:22:15Z</time>
      </trkpt>
      <trkpt lat="45.2753" lon="6.01794">
        <ele>1538.73</ele>
        <time>2013-09-20T09:22:49Z</time>
      </trkpt>
      <trkpt lat="45.27494" lon="6.01854">
        <ele>1543.05</ele>
        <time>2013-09-20T09:23:26Z</time>
      </trkpt>
      <trkpt lat="45.2746" lon="6.01906">
        <ele>1546.9</ele>
        <time>2013-09-20T09:23:55Z</time>
      </trkpt>
      <trkpt lat="45.27429" lon="6.01959">
        <ele>1550.26</ele>
        <time>2013-09-20T09:24:25Z</time>
      </trkpt>
      <trkpt lat="45.27399" lon="6.02018">
        <ele>1555.07</ele>
        <time>2013-09-20T09:24:57Z</time>
      </trkpt>
      <trkpt lat="45.27368" lon="6.02084">
        <ele>1559.88</ele>
        <time>2013-09-20T09:25:35Z</time>
      </trkpt>
      <trkpt lat="45.27325" lon="6.02136">
        <ele>1562.28</ele>
        <time>2013-09-20T09:26:03Z</time>
      </trkpt>
      <trkpt lat="45.27277" lon="6.02167">
        <ele>1558.92</ele>
        <time>2013-09-20T09:26:14Z</time>
      </trkpt>
      <trkpt lat="45.2723" lon="6.02164">
        <ele>1554.59</ele>
        <time>2013-09-20T09:26:23Z</time>
      </trkpt>
      <trkpt lat="45.27187" lon="6.02142">
        <ele>1556.03</ele>
        <time>2013-09-20T09:26:30Z</time>
      </trkpt>
      <trkpt lat="45.27143" lon="6.02134">
        <ele>1557.95</ele>
        <time>2013-09-20T09:26:44Z</time>
      </trkpt>
      <trkpt lat="45.27112" lon="6.02096">
        <ele>1561.32</ele>
        <time>2013-09-20T09:27:05Z</time>
      </trkpt>
      <trkpt lat="45.27104" lon="6.02019">
        <ele>1566.12</ele>
        <time>2013-09-20T09:27:42Z</time>
      </trkpt>
      <trkpt lat="45.27075" lon="6.01954">
        <ele>1568.53</ele>
        <time>2013-09-20T09:28:12Z</time>
      </trkpt>
      <trkpt lat="45.27051" lon="6.01893">
        <ele>1573.33</ele>
        <time>2013-09-20T09:28:43Z</time>
      </trkpt>
      <trkpt lat="45.27025" lon="6.01819">
        <ele>1579.1</ele>
        <time>2013-09-20T09:29:17Z</time>
      </trkpt>
      <trkpt lat="45.27018" lon="6.01747">
        <ele>1581.51</ele>
        <time>2013-09-20T09:29:48Z</time>
      </trkpt>
      <trkpt lat="45.27036" lon="6.01676">
        <ele>1585.83</ele>
        <time>2013-09-20T09:30:22Z</time>
      </trkpt>
      <trkpt lat="45.27046" lon="6.01607">
        <ele>1589.68</ele>
        <time>2013-09-20T09:30:52Z</time>
      </trkpt>
      <trkpt lat="45.27005" lon="6.01582">
        <ele>1592.56</ele>
        <time>2013-09-20T09:31:21Z</time>
      </trkpt>
      <trkpt lat="45.26959" lon="6.01568">
        <ele>1587.75</ele>
        <time>2013-09-20T09:31:43Z</time>
      </trkpt>
      <trkpt lat="45.26909" lon="6.01526">
        <ele>1584.39</ele>
        <time>2013-09-20T09:31:52Z</time>
      </trkpt>
      <trkpt lat="45.26857" lon="6.01484">
        <ele>1580.06</ele>
        <time>2013-09-20T09:31:59Z</time>
      </trkpt>
      <trkpt lat="45.2681" lon="6.01462">
        <ele>1575.74</ele>
        <time>2013-09-20T09:32:05Z</time>
      </trkpt>
      <trkpt lat="45.26762" lon="6.01452">
        <ele>1575.26</ele>
        <time>2013-09-20T09:32:13Z</time>
      </trkpt>
      <trkpt lat="45.26727" lon="6.01463">
        <ele>1572.37</ele>
        <time>2013-09-20T09:32:59Z</time>
      </trkpt>
      <trkpt lat="45.26682" lon="6.01493">
        <ele>1569.01</ele>
        <time>2013-09-20T09:33:07Z</time>
      </trkpt>
      <trkpt lat="45.26638" lon="6.01528">
        <ele>1566.61</ele>
        <time>2013-09-20T09:33:14Z</time>
      </trkpt>
      <trkpt lat="45.26597" lon="6.01562">
        <ele>1566.61</ele>
        <time>2013-09-20T09:33:22Z</time>
      </trkpt>
      <trkpt lat="45.26553" lon="6.01584">
        <ele>1566.12</ele>
        <time>2013-09-20T09:33:32Z</time>
      </trkpt>
      <trkpt lat="45.26514" lon="6.01559">
        <ele>1569.01</ele>
        <time>2013-09-20T09:33:54Z</time>
      </trkpt>
      <trkpt lat="45.2647" lon="6.01589">
        <ele>1568.53</ele>
        <time>2013-09-20T09:34:22Z</time>
      </trkpt>
      <trkpt lat="45.2643" lon="6.01616">
        <ele>1568.05</ele>
        <time>2013-09-20T09:34:43Z</time>
      </trkpt>
      <trkpt lat="45.26395" lon="6.0164">
        <ele>1570.45</ele>
        <time>2013-09-20T09:38:31Z</time>
      </trkpt>
      <trkpt lat="45.26386" lon="6.01705">
        <ele>1577.66</ele>
        <time>2013-09-20T09:39:10Z</time>
      </trkpt>
      <trkpt lat="45.26392" lon="6.01762">
        <ele>1584.87</ele>
        <time>2013-09-20T09:39:57Z</time>
      </trkpt>
      <trkpt lat="45.26391" lon="6.01827">
        <ele>1594.96</ele>
        <time>2013-09-20T09:42:35Z</time>
      </trkpt>
      <trkpt lat="45.26352" lon="6.01855">
        <ele>1606.5</ele>
        <time>2013-09-20T09:44:08Z</time>
      </trkpt>
      <trkpt lat="45.26316" lon="6.0189">
        <ele>1620.92</ele>
        <time>2013-09-20T09:45:49Z</time>
      </trkpt>
      <trkpt lat="45.2628" lon="6.01939">
        <ele>1633.42</ele>
        <time>2013-09-20T09:46:58Z</time>
      </trkpt>
      <trkpt lat="45.26233" lon="6.01954">
        <ele>1646.4</ele>
        <time>2013-09-20T09:48:13Z</time>
      </trkpt>
      <trkpt lat="45.26188" lon="6.01958">
        <ele>1659.85</ele>
        <time>2013-09-20T09:49:32Z</time>
      </trkpt>
      <trkpt lat="45.26148" lon="6.01967">
        <ele>1665.14</ele>
        <time>2013-09-20T09:50:53Z</time>
      </trkpt>
      <trkpt lat="45.26101" lon="6.01959">
        <ele>1668.51</ele>
        <time>2013-09-20T09:51:25Z</time>
      </trkpt>
      <trkpt lat="45.26058" lon="6.0194">
        <ele>1671.87</ele>
        <time>2013-09-20T09:51:57Z</time>
      </trkpt>
      <trkpt lat="45.26084" lon="6.01988">
        <ele>1679.08</ele>
        <time>2013-09-20T09:52:32Z</time>
      </trkpt>
      <trkpt lat="45.26117" lon="6.02032">
        <ele>1683.41</ele>
        <time>2013-09-20T09:53:05Z</time>
      </trkpt>
      <trkpt lat="45.26145" lon="6.02082">
        <ele>1688.21</ele>
        <time>2013-09-20T09:53:38Z</time>
      </trkpt>
      <trkpt lat="45.26154" lon="6.02147">
        <ele>1692.54</ele>
        <time>2013-09-20T09:54:11Z</time>
      </trkpt>
      <trkpt lat="45.26166" lon="6.02209">
        <ele>1696.86</ele>
        <time>2013-09-20T09:54:40Z</time>
      </trkpt>
      <trkpt lat="45.26186" lon="6.02269">
        <ele>1702.15</ele>
        <time>2013-09-20T09:55:12Z</time>
      </trkpt>
      <trkpt lat="45.26204" lon="6.02328">
        <ele>1707.44</ele>
        <time>2013-09-20T09:55:47Z</time>
      </trkpt>
      <trkpt lat="45.26219" lon="6.02394">
        <ele>1712.73</ele>
        <time>2013-09-20T09:56:25Z</time>
      </trkpt>
      <trkpt lat="45.26239" lon="6.02456">
        <ele>1718.97</ele>
        <time>2013-09-20T09:57:02Z</time>
      </trkpt>
      <trkpt lat="45.26265" lon="6.02509">
        <ele>1725.22</ele>
        <time>2013-09-20T09:57:43Z</time>
      </trkpt>
      <trkpt lat="45.26299" lon="6.02555">
        <ele>1730.03</ele>
        <time>2013-09-20T09:58:18Z</time>
      </trkpt>
      <trkpt lat="45.26339" lon="6.02591">
        <ele>1733.39</ele>
        <time>2013-09-20T09:58:49Z</time>
      </trkpt>
      <trkpt lat="45.26369" lon="6.02641">
        <ele>1736.76</ele>
        <time>2013-09-20T09:59:15Z</time>
      </trkpt>
      <trkpt lat="45.26391" lon="6.02691">
        <ele>1740.12</ele>
        <time>2013-09-20T10:00:24Z</time>
      </trkpt>
      <trkpt lat="45.26427" lon="6.02727">
        <ele>1744.45</ele>
        <time>2013-09-20T10:00:53Z</time>
      </trkpt>
      <trkpt lat="45.26474" lon="6.02729">
        <ele>1746.85</ele>
        <time>2013-09-20T10:01:17Z</time>
      </trkpt>
      <trkpt lat="45.26516" lon="6.0271">
        <ele>1751.18</ele>
        <time>2013-09-20T10:01:45Z</time>
      </trkpt>
      <trkpt lat="45.26555" lon="6.02675">
        <ele>1756.47</ele>
        <time>2013-09-20T10:02:19Z</time>
      </trkpt>
      <trkpt lat="45.26595" lon="6.02645">
        <ele>1761.75</ele>
        <time>2013-09-20T10:02:53Z</time>
      </trkpt>
      <trkpt lat="45.26637" lon="6.02622">
        <ele>1766.56</ele>
        <time>2013-09-20T10:03:27Z</time>
      </trkpt>
      <trkpt lat="45.26668" lon="6.02663">
        <ele>1773.29</ele>
        <time>2013-09-20T10:04:04Z</time>
      </trkpt>
      <trkpt lat="45.26677" lon="6.02726">
        <ele>1778.1</ele>
        <time>2013-09-20T10:04:42Z</time>
      </trkpt>
      <trkpt lat="45.26692" lon="6.02791">
        <ele>1781.94</ele>
        <time>2013-09-20T10:05:16Z</time>
      </trkpt>
      <trkpt lat="45.26707" lon="6.02854">
        <ele>1786.75</ele>
        <time>2013-09-20T10:05:51Z</time>
      </trkpt>
      <trkpt lat="45.26729" lon="6.02912">
        <ele>1793</ele>
        <time>2013-09-20T10:06:30Z</time>
      </trkpt>
      <trkpt lat="45.26758" lon="6.02963">
        <ele>1797.32</ele>
        <time>2013-09-20T10:07:07Z</time>
      </trkpt>
      <trkpt lat="45.2679" lon="6.0301">
        <ele>1803.09</ele>
        <time>2013-09-20T10:07:45Z</time>
      </trkpt>
      <trkpt lat="45.26831" lon="6.03038">
        <ele>1806.94</ele>
        <time>2013-09-20T10:08:19Z</time>
      </trkpt>
      <trkpt lat="45.26871" lon="6.03071">
        <ele>1810.78</ele>
        <time>2013-09-20T10:08:53Z</time>
      </trkpt>
      <trkpt lat="45.26888" lon="6.03127">
        <ele>1817.03</ele>
        <time>2013-09-20T10:10:40Z</time>
      </trkpt>
      <trkpt lat="45.26922" lon="6.03171">
        <ele>1824.24</ele>
        <time>2013-09-20T10:11:24Z</time>
      </trkpt>
      <trkpt lat="45.2696" lon="6.03207">
        <ele>1832.89</ele>
        <time>2013-09-20T10:12:19Z</time>
      </trkpt>
      <trkpt lat="45.27001" lon="6.03241">
        <ele>1842.02</ele>
        <time>2013-09-20T10:13:16Z</time>
      </trkpt>
      <trkpt lat="45.2703" lon="6.03292">
        <ele>1848.75</ele>
        <time>2013-09-20T10:14:06Z</time>
      </trkpt>
      <trkpt lat="45.27064" lon="6.03335">
        <ele>1856.44</ele>
        <time>2013-09-20T10:14:57Z</time>
      </trkpt>
      <trkpt lat="45.27109" lon="6.03347">
        <ele>1863.17</ele>
        <time>2013-09-20T10:15:45Z</time>
      </trkpt>
      <trkpt lat="45.27153" lon="6.03347">
        <ele>1869.9</ele>
        <time>2013-09-20T10:16:33Z</time>
      </trkpt>
      <trkpt lat="45.27196" lon="6.03362">
        <ele>1878.55</ele>
        <time>2013-09-20T10:17:28Z</time>
      </trkpt>
      <trkpt lat="45.27243" lon="6.03369">
        <ele>1887.21</ele>
        <time>2013-09-20T10:18:31Z</time>
      </trkpt>
      <trkpt lat="45.27284" lon="6.03395">
        <ele>1892.49</ele>
        <time>2013-09-20T10:19:18Z</time>
      </trkpt>
      <trkpt lat="45.273" lon="6.03458">
        <ele>1896.34</ele>
        <time>2013-09-20T10:19:50Z</time>
      </trkpt>
      <trkpt lat="45.27325" lon="6.03513">
        <ele>1894.9</ele>
        <time>2013-09-20T10:21:53Z</time>
      </trkpt>
      <trkpt lat="45.27363" lon="6.03548">
        <ele>1887.21</ele>
        <time>2013-09-20T10:22:02Z</time>
      </trkpt>
      <trkpt lat="45.27397" lon="6.03598">
        <ele>1880.48</ele>
        <time>2013-09-20T10:22:10Z</time>
      </trkpt>
      <trkpt lat="45.2742" lon="6.03661">
        <ele>1878.55</ele>
        <time>2013-09-20T10:22:19Z</time>
      </trkpt>
      <trkpt lat="45.27429" lon="6.03727">
        <ele>1880</ele>
        <time>2013-09-20T10:22:35Z</time>
      </trkpt>
      <trkpt lat="45.27464" lon="6.03771">
        <ele>1876.15</ele>
        <time>2013-09-20T10:22:42Z</time>
      </trkpt>
      <trkpt lat="45.27502" lon="6.03808">
        <ele>1876.63</ele>
        <time>2013-09-20T10:22:58Z</time>
      </trkpt>
      <trkpt lat="45.27525" lon="6.03861">
        <ele>1880</ele>
        <time>2013-09-20T10:23:22Z</time>
      </trkpt>
      <trkpt lat="45.27538" lon="6.03914">
        <ele>1878.07</ele>
        <time>2013-09-20T10:23:46Z</time>
      </trkpt>
      <trkpt lat="45.27503" lon="6.03938">
        <ele>1879.51</ele>
        <time>2013-09-20T10:24:10Z</time>
      </trkpt>
      <trkpt lat="45.27526" lon="6.03993">
        <ele>1875.19</ele>
        <time>2013-09-20T10:24:23Z</time>
      </trkpt>
      <trkpt lat="45.27557" lon="6.04036">
        <ele>1877.11</ele>
        <time>2013-09-20T10:25:08Z</time>
      </trkpt>
      <trkpt lat="45.27583" lon="6.04086">
        <ele>1880.96</ele>
        <time>2013-09-20T10:25:33Z</time>
      </trkpt>
      <trkpt lat="45.27596" lon="6.04141">
        <ele>1882.4</ele>
        <time>2013-09-20T10:26:07Z</time>
      </trkpt>
      <trkpt lat="45.27612" lon="6.0417">
        <ele>1885.28</ele>
        <time>2013-09-20T10:47:50Z</time>
      </trkpt>
      <trkpt lat="45.27582" lon="6.04126">
        <ele>1886.24</ele>
        <time>2013-09-20T10:48:15Z</time>
      </trkpt>
      <trkpt lat="45.27566" lon="6.04073">
        <ele>1884.8</ele>
        <time>2013-09-20T10:48:34Z</time>
      </trkpt>
      <trkpt lat="45.27565" lon="6.0404">
        <ele>1882.4</ele>
        <time>2013-09-20T10:49:01Z</time>
      </trkpt>
      <trkpt lat="45.27565" lon="6.03991">
        <ele>1878.07</ele>
        <time>2013-09-20T10:49:53Z</time>
      </trkpt>
      <trkpt lat="45.27602" lon="6.03962">
        <ele>1878.07</ele>
        <time>2013-09-20T10:50:17Z</time>
      </trkpt>
      <trkpt lat="45.27642" lon="6.03935">
        <ele>1873.75</ele>
        <time>2013-09-20T10:50:40Z</time>
      </trkpt>
      <trkpt lat="45.27684" lon="6.03948">
        <ele>1867.5</ele>
        <time>2013-09-20T10:50:56Z</time>
      </trkpt>
      <trkpt lat="45.2771" lon="6.04">
        <ele>1860.77</ele>
        <time>2013-09-20T10:51:16Z</time>
      </trkpt>
      <trkpt lat="45.27747" lon="6.03977">
        <ele>1853.56</ele>
        <time>2013-09-20T10:51:25Z</time>
      </trkpt>
      <trkpt lat="45.27746" lon="6.03912">
        <ele>1850.19</ele>
        <time>2013-09-20T10:51:33Z</time>
      </trkpt>
      <trkpt lat="45.27738" lon="6.03852">
        <ele>1842.5</ele>
        <time>2013-09-20T10:51:40Z</time>
      </trkpt>
      <trkpt lat="45.27773" lon="6.0381">
        <ele>1839.14</ele>
        <time>2013-09-20T10:51:46Z</time>
      </trkpt>
      <trkpt lat="45.27819" lon="6.03833">
        <ele>1834.81</ele>
        <time>2013-09-20T10:51:52Z</time>
      </trkpt>
      <trkpt lat="45.27865" lon="6.03872">
        <ele>1829.05</ele>
        <time>2013-09-20T10:51:58Z</time>
      </trkpt>
      <trkpt lat="45.27903" lon="6.03905">
        <ele>1827.12</ele>
        <time>2013-09-20T10:52:03Z</time>
      </trkpt>
      <trkpt lat="45.2794" lon="6.03942">
        <ele>1825.68</ele>
        <time>2013-09-20T10:52:10Z</time>
      </trkpt>
      <trkpt lat="45.27977" lon="6.0398">
        <ele>1820.87</ele>
        <time>2013-09-20T10:52:18Z</time>
      </trkpt>
      <trkpt lat="45.28023" lon="6.03982">
        <ele>1812.22</ele>
        <time>2013-09-20T10:52:27Z</time>
      </trkpt>
      <trkpt lat="45.28067" lon="6.03992">
        <ele>1808.86</ele>
        <time>2013-09-20T10:52:35Z</time>
      </trkpt>
      <trkpt lat="45.2811" lon="6.04022">
        <ele>1807.9</ele>
        <time>2013-09-20T10:52:46Z</time>
      </trkpt>
      <trkpt lat="45.28143" lon="6.04066">
        <ele>1807.42</ele>
        <time>2013-09-20T10:53:02Z</time>
      </trkpt>
      <trkpt lat="45.28187" lon="6.04082">
        <ele>1807.9</ele>
        <time>2013-09-20T10:53:19Z</time>
      </trkpt>
      <trkpt lat="45.28232" lon="6.04084">
        <ele>1805.01</ele>
        <time>2013-09-20T10:53:32Z</time>
      </trkpt>
      <trkpt lat="45.2827" lon="6.04066">
        <ele>1800.21</ele>
        <time>2013-09-20T10:54:40Z</time>
      </trkpt>
      <trkpt lat="45.28305" lon="6.04076">
        <ele>1803.09</ele>
        <time>2013-09-20T10:55:26Z</time>
      </trkpt>
      <trkpt lat="45.28351" lon="6.0407">
        <ele>1807.42</ele>
        <time>2013-09-20T10:56:32Z</time>
      </trkpt>
      <trkpt lat="45.2839" lon="6.04029">
        <ele>1812.7</ele>
        <time>2013-09-20T10:57:09Z</time>
      </trkpt>
      <trkpt lat="45.28414" lon="6.03973">
        <ele>1816.55</ele>
        <time>2013-09-20T10:58:00Z</time>
      </trkpt>
      <trkpt lat="45.28448" lon="6.03929">
        <ele>1820.39</ele>
        <time>2013-09-20T10:58:56Z</time>
      </trkpt>
      <trkpt lat="45.28493" lon="6.03927">
        <ele>1827.6</ele>
        <time>2013-09-20T10:59:44Z</time>
      </trkpt>
      <trkpt lat="45.28539" lon="6.03936">
        <ele>1833.37</ele>
        <time>2013-09-20T11:00:33Z</time>
      </trkpt>
      <trkpt lat="45.2858" lon="6.03941">
        <ele>1836.26</ele>
        <time>2013-09-20T11:03:59Z</time>
      </trkpt>
      <trkpt lat="45.28626" lon="6.03946">
        <ele>1842.5</ele>
        <time>2013-09-20T11:04:25Z</time>
      </trkpt>
      <trkpt lat="45.28672" lon="6.03959">
        <ele>1840.1</ele>
        <time>2013-09-20T11:04:53Z</time>
      </trkpt>
      <trkpt lat="45.28718" lon="6.03977">
        <ele>1841.06</ele>
        <time>2013-09-20T11:05:20Z</time>
      </trkpt>
      <trkpt lat="45.28764" lon="6.03981">
        <ele>1842.5</ele>
        <time>2013-09-20T11:05:46Z</time>
      </trkpt>
      <trkpt lat="45.2881" lon="6.03988">
        <ele>1843.95</ele>
        <time>2013-09-20T11:06:14Z</time>
      </trkpt>
      <trkpt lat="45.28854" lon="6.04001">
        <ele>1846.83</ele>
        <time>2013-09-20T11:06:42Z</time>
      </trkpt>
      <trkpt lat="45.28898" lon="6.04011">
        <ele>1847.79</ele>
        <time>2013-09-20T11:07:11Z</time>
      </trkpt>
      <trkpt lat="45.28942" lon="6.04029">
        <ele>1844.91</ele>
        <time>2013-09-20T11:07:28Z</time>
      </trkpt>
      <trkpt lat="45.28986" lon="6.04044">
        <ele>1843.95</ele>
        <time>2013-09-20T11:07:53Z</time>
      </trkpt>
      <trkpt lat="45.2903" lon="6.0406">
        <ele>1842.5</ele>
        <time>2013-09-20T11:08:17Z</time>
      </trkpt>
      <trkpt lat="45.29076" lon="6.04057">
        <ele>1842.5</ele>
        <time>2013-09-20T11:09:27Z</time>
      </trkpt>
      <trkpt lat="45.29119" lon="6.0403">
        <ele>1841.54</ele>
        <time>2013-09-20T11:10:19Z</time>
      </trkpt>
      <trkpt lat="45.2916" lon="6.04032">
        <ele>1853.08</ele>
        <time>2013-09-20T11:11:24Z</time>
      </trkpt>
      <trkpt lat="45.29198" lon="6.04058">
        <ele>1856.44</ele>
        <time>2013-09-20T11:13:35Z</time>
      </trkpt>
      <trkpt lat="45.29245" lon="6.04074">
        <ele>1850.19</ele>
        <time>2013-09-20T11:13:46Z</time>
      </trkpt>
      <trkpt lat="45.29285" lon="6.041">
        <ele>1847.31</ele>
        <time>2013-09-20T11:14:30Z</time>
      </trkpt>
      <trkpt lat="45.29328" lon="6.04122">
        <ele>1842.02</ele>
        <time>2013-09-20T11:14:48Z</time>
      </trkpt>
      <trkpt lat="45.29376" lon="6.0414">
        <ele>1844.91</ele>
        <time>2013-09-20T11:16:24Z</time>
      </trkpt>
      <trkpt lat="45.29414" lon="6.04165">
        <ele>1846.83</ele>
        <time>2013-09-20T11:17:11Z</time>
      </trkpt>
      <trkpt lat="45.29454" lon="6.04197">
        <ele>1847.79</ele>
        <time>2013-09-20T11:17:33Z</time>
      </trkpt>
      <trkpt lat="45.29487" lon="6.04243">
        <ele>1850.19</ele>
        <time>2013-09-20T11:17:58Z</time>
      </trkpt>
      <trkpt lat="45.29525" lon="6.04274">
        <ele>1854.52</ele>
        <time>2013-09-20T11:18:36Z</time>
      </trkpt>
      <trkpt lat="45.29559" lon="6.04315">
        <ele>1855</ele>
        <time>2013-09-20T11:23:37Z</time>
      </trkpt>
      <trkpt lat="45.29597" lon="6.04352">
        <ele>1859.33</ele>
        <time>2013-09-20T11:24:13Z</time>
      </trkpt>
      <trkpt lat="45.29636" lon="6.04384">
        <ele>1863.65</ele>
        <time>2013-09-20T11:24:56Z</time>
      </trkpt>
      <trkpt lat="45.29676" lon="6.04412">
        <ele>1870.86</ele>
        <time>2013-09-20T11:25:41Z</time>
      </trkpt>
      <trkpt lat="45.2972" lon="6.0443">
        <ele>1872.79</ele>
        <time>2013-09-20T11:26:20Z</time>
      </trkpt>
      <trkpt lat="45.29766" lon="6.04439">
        <ele>1874.71</ele>
        <time>2013-09-20T11:26:47Z</time>
      </trkpt>
      <trkpt lat="45.29811" lon="6.04465">
        <ele>1873.27</ele>
        <time>2013-09-20T11:27:12Z</time>
      </trkpt>
      <trkpt lat="45.2985" lon="6.04493">
        <ele>1873.27</ele>
        <time>2013-09-20T11:27:29Z</time>
      </trkpt>
      <trkpt lat="45.29896" lon="6.0452">
        <ele>1879.03</ele>
        <time>2013-09-20T11:28:10Z</time>
      </trkpt>
      <trkpt lat="45.29936" lon="6.04535">
        <ele>1885.76</ele>
        <time>2013-09-20T11:30:36Z</time>
      </trkpt>
      <trkpt lat="45.29972" lon="6.04575">
        <ele>1885.76</ele>
        <time>2013-09-20T11:30:57Z</time>
      </trkpt>
      <trkpt lat="45.30008" lon="6.04614">
        <ele>1889.61</ele>
        <time>2013-09-20T11:31:25Z</time>
      </trkpt>
      <trkpt lat="45.30046" lon="6.04654">
        <ele>1894.9</ele>
        <time>2013-09-20T11:32:07Z</time>
      </trkpt>
      <trkpt lat="45.30088" lon="6.04678">
        <ele>1894.9</ele>
        <time>2013-09-20T11:32:37Z</time>
      </trkpt>
      <trkpt lat="45.30135" lon="6.04699">
        <ele>1890.57</ele>
        <time>2013-09-20T11:32:50Z</time>
      </trkpt>
      <trkpt lat="45.30162" lon="6.04721">
        <ele>1896.82</ele>
        <time>2013-09-20T11:34:15Z</time>
      </trkpt>
      <trkpt lat="45.30211" lon="6.04763">
        <ele>1902.11</ele>
        <time>2013-09-20T11:35:40Z</time>
      </trkpt>
      <trkpt lat="45.30252" lon="6.0479">
        <ele>1904.03</ele>
        <time>2013-09-20T11:36:05Z</time>
      </trkpt>
      <trkpt lat="45.30293" lon="6.04815">
        <ele>1905.95</ele>
        <time>2013-09-20T11:37:22Z</time>
      </trkpt>
      <trkpt lat="45.30335" lon="6.04846">
        <ele>1904.03</ele>
        <time>2013-09-20T11:37:39Z</time>
      </trkpt>
      <trkpt lat="45.30367" lon="6.0489">
        <ele>1907.87</ele>
        <time>2013-09-20T11:38:04Z</time>
      </trkpt>
      <trkpt lat="45.30401" lon="6.0493">
        <ele>1907.39</ele>
        <time>2013-09-20T11:38:33Z</time>
      </trkpt>
      <trkpt lat="45.30432" lon="6.04975">
        <ele>1909.8</ele>
        <time>2013-09-20T11:39:08Z</time>
      </trkpt>
      <trkpt lat="45.30399" lon="6.04985">
        <ele>1913.16</ele>
        <time>2013-09-20T11:40:57Z</time>
      </trkpt>
      <trkpt lat="45.30385" lon="6.04993">
        <ele>1916.53</ele>
        <time>2013-09-20T11:49:07Z</time>
      </trkpt>
      <trkpt lat="45.3043" lon="6.04978">
        <ele>1909.8</ele>
        <time>2013-09-20T11:49:16Z</time>
      </trkpt>
      <trkpt lat="45.30475" lon="6.04992">
        <ele>1904.03</ele>
        <time>2013-09-20T11:49:29Z</time>
      </trkpt>
      <trkpt lat="45.30518" lon="6.05025">
        <ele>1899.7</ele>
        <time>2013-09-20T11:49:40Z</time>
      </trkpt>
      <trkpt lat="45.30561" lon="6.05047">
        <ele>1897.78</ele>
        <time>2013-09-20T11:49:52Z</time>
      </trkpt>
      <trkpt lat="45.30607" lon="6.05058">
        <ele>1891.05</ele>
        <time>2013-09-20T11:50:11Z</time>
      </trkpt>
      <trkpt lat="45.30652" lon="6.05057">
        <ele>1880</ele>
        <time>2013-09-20T11:50:25Z</time>
      </trkpt>
      <trkpt lat="45.30701" lon="6.05058">
        <ele>1870.38</ele>
        <time>2013-09-20T11:50:40Z</time>
      </trkpt>
      <trkpt lat="45.3074" lon="6.05066">
        <ele>1860.77</ele>
        <time>2013-09-20T11:51:56Z</time>
      </trkpt>
      <trkpt lat="45.30787" lon="6.05069">
        <ele>1848.75</ele>
        <time>2013-09-20T11:52:17Z</time>
      </trkpt>
      <trkpt lat="45.30832" lon="6.05078">
        <ele>1840.1</ele>
        <time>2013-09-20T11:52:32Z</time>
      </trkpt>
      <trkpt lat="45.30877" lon="6.05106">
        <ele>1833.37</ele>
        <time>2013-09-20T11:52:45Z</time>
      </trkpt>
      <trkpt lat="45.30924" lon="6.05105">
        <ele>1829.53</ele>
        <time>2013-09-20T11:53:00Z</time>
      </trkpt>
      <trkpt lat="45.30965" lon="6.05074">
        <ele>1827.6</ele>
        <time>2013-09-20T11:53:18Z</time>
      </trkpt>
      <trkpt lat="45.31005" lon="6.0504">
        <ele>1830.01</ele>
        <time>2013-09-20T11:53:42Z</time>
      </trkpt>
      <trkpt lat="45.31055" lon="6.05056">
        <ele>1822.8</ele>
        <time>2013-09-20T11:54:01Z</time>
      </trkpt>
      <trkpt lat="45.311" lon="6.0507">
        <ele>1816.55</ele>
        <time>2013-09-20T11:54:09Z</time>
      </trkpt>
      <trkpt lat="45.3115" lon="6.05085">
        <ele>1814.63</ele>
        <time>2013-09-20T11:54:18Z</time>
      </trkpt>
      <trkpt lat="45.31194" lon="6.05101">
        <ele>1813.66</ele>
        <time>2013-09-20T11:54:30Z</time>
      </trkpt>
      <trkpt lat="45.31236" lon="6.05113">
        <ele>1812.22</ele>
        <time>2013-09-20T11:55:25Z</time>
      </trkpt>
      <trkpt lat="45.31277" lon="6.05137">
        <ele>1811.26</ele>
        <time>2013-09-20T11:56:59Z</time>
      </trkpt>
      <trkpt lat="45.31317" lon="6.05167">
        <ele>1808.86</ele>
        <time>2013-09-20T11:57:13Z</time>
      </trkpt>
      <trkpt lat="45.31359" lon="6.05191">
        <ele>1806.94</ele>
        <time>2013-09-20T11:57:26Z</time>
      </trkpt>
      <trkpt lat="45.314" lon="6.05234">
        <ele>1798.76</ele>
        <time>2013-09-20T11:57:36Z</time>
      </trkpt>
      <trkpt lat="45.3144" lon="6.05271">
        <ele>1793.48</ele>
        <time>2013-09-20T11:57:42Z</time>
      </trkpt>
      <trkpt lat="45.31486" lon="6.05301">
        <ele>1789.15</ele>
        <time>2013-09-20T11:57:50Z</time>
      </trkpt>
      <trkpt lat="45.3153" lon="6.05329">
        <ele>1779.06</ele>
        <time>2013-09-20T11:57:58Z</time>
      </trkpt>
      <trkpt lat="45.31575" lon="6.05363">
        <ele>1775.21</ele>
        <time>2013-09-20T11:58:06Z</time>
      </trkpt>
      <trkpt lat="45.3161" lon="6.05397">
        <ele>1777.61</ele>
        <time>2013-09-20T11:58:55Z</time>
      </trkpt>
      <trkpt lat="45.31652" lon="6.05411">
        <ele>1774.25</ele>
        <time>2013-09-20T11:59:24Z</time>
      </trkpt>
      <trkpt lat="45.31685" lon="6.05453">
        <ele>1770.41</ele>
        <time>2013-09-20T11:59:41Z</time>
      </trkpt>
      <trkpt lat="45.31721" lon="6.05497">
        <ele>1765.12</ele>
        <time>2013-09-20T11:59:53Z</time>
      </trkpt>
      <trkpt lat="45.31758" lon="6.05531">
        <ele>1764.16</ele>
        <time>2013-09-20T12:00:13Z</time>
      </trkpt>
      <trkpt lat="45.318" lon="6.05557">
        <ele>1766.08</ele>
        <time>2013-09-20T12:00:38Z</time>
      </trkpt>
      <trkpt lat="45.31838" lon="6.05594">
        <ele>1763.2</ele>
        <time>2013-09-20T12:01:02Z</time>
      </trkpt>
      <trkpt lat="45.31884" lon="6.0563">
        <ele>1748.78</ele>
        <time>2013-09-20T12:01:16Z</time>
      </trkpt>
      <trkpt lat="45.31925" lon="6.05638">
        <ele>1743.01</ele>
        <time>2013-09-20T12:01:58Z</time>
      </trkpt>
      <trkpt lat="45.31968" lon="6.0564">
        <ele>1741.08</ele>
        <time>2013-09-20T12:02:20Z</time>
      </trkpt>
      <trkpt lat="45.32012" lon="6.05655">
        <ele>1741.57</ele>
        <time>2013-09-20T12:02:39Z</time>
      </trkpt>
      <trkpt lat="45.32054" lon="6.05686">
        <ele>1735.8</ele>
        <time>2013-09-20T12:02:49Z</time>
      </trkpt>
      <trkpt lat="45.321" lon="6.05704">
        <ele>1728.59</ele>
        <time>2013-09-20T12:03:03Z</time>
      </trkpt>
      <trkpt lat="45.32143" lon="6.0572">
        <ele>1728.11</ele>
        <time>2013-09-20T12:03:24Z</time>
      </trkpt>
      <trkpt lat="45.32184" lon="6.05734">
        <ele>1724.26</ele>
        <time>2013-09-20T12:03:58Z</time>
      </trkpt>
      <trkpt lat="45.32227" lon="6.05765">
        <ele>1718.97</ele>
        <time>2013-09-20T12:04:06Z</time>
      </trkpt>
      <trkpt lat="45.3227" lon="6.0579">
        <ele>1714.65</ele>
        <time>2013-09-20T12:04:20Z</time>
      </trkpt>
      <trkpt lat="45.32315" lon="6.05812">
        <ele>1709.84</ele>
        <time>2013-09-20T12:04:45Z</time>
      </trkpt>
      <trkpt lat="45.32367" lon="6.05839">
        <ele>1715.13</ele>
        <time>2013-09-20T12:05:17Z</time>
      </trkpt>
      <trkpt lat="45.32415" lon="6.05857">
        <ele>1717.05</ele>
        <time>2013-09-20T12:05:54Z</time>
      </trkpt>
      <trkpt lat="45.32464" lon="6.05839">
        <ele>1713.69</ele>
        <time>2013-09-20T12:06:15Z</time>
      </trkpt>
      <trkpt lat="45.32504" lon="6.05869">
        <ele>1710.8</ele>
        <time>2013-09-20T12:06:29Z</time>
      </trkpt>
      <trkpt lat="45.32544" lon="6.05909">
        <ele>1707.92</ele>
        <time>2013-09-20T12:06:59Z</time>
      </trkpt>
      <trkpt lat="45.32597" lon="6.05943">
        <ele>1713.69</ele>
        <time>2013-09-20T12:07:34Z</time>
      </trkpt>
      <trkpt lat="45.32652" lon="6.05978">
        <ele>1712.25</ele>
        <time>2013-09-20T12:08:07Z</time>
      </trkpt>
      <trkpt lat="45.32691" lon="6.06021">
        <ele>1706</ele>
        <time>2013-09-20T12:08:20Z</time>
      </trkpt>
      <trkpt lat="45.32741" lon="6.06054">
        <ele>1699.27</ele>
        <time>2013-09-20T12:08:26Z</time>
      </trkpt>
      <trkpt lat="45.32795" lon="6.06051">
        <ele>1697.34</ele>
        <time>2013-09-20T12:08:32Z</time>
      </trkpt>
      <trkpt lat="45.3284" lon="6.06032">
        <ele>1693.98</ele>
        <time>2013-09-20T12:08:39Z</time>
      </trkpt>
      <trkpt lat="45.32874" lon="6.0603">
        <ele>1694.94</ele>
        <time>2013-09-20T12:20:16Z</time>
      </trkpt>
      <trkpt lat="45.32888" lon="6.0609">
        <ele>1689.65</ele>
        <time>2013-09-20T12:20:42Z</time>
      </trkpt>
      <trkpt lat="45.3291" lon="6.06146">
        <ele>1683.89</ele>
        <time>2013-09-20T12:20:55Z</time>
      </trkpt>
      <trkpt lat="45.32945" lon="6.06192">
        <ele>1679.56</ele>
        <time>2013-09-20T12:21:05Z</time>
      </trkpt>
      <trkpt lat="45.32981" lon="6.06239">
        <ele>1673.79</ele>
        <time>2013-09-20T12:21:13Z</time>
      </trkpt>
      <trkpt lat="45.33003" lon="6.06287">
        <ele>1668.02</ele>
        <time>2013-09-20T12:21:44Z</time>
      </trkpt>
      <trkpt lat="45.33027" lon="6.06309">
        <ele>1658.41</ele>
        <time>2013-09-20T12:22:21Z</time>
      </trkpt>
      <trkpt lat="45.33062" lon="6.06359">
        <ele>1650.72</ele>
        <time>2013-09-20T12:22:35Z</time>
      </trkpt>
      <trkpt lat="45.33064" lon="6.06419">
        <ele>1642.55</ele>
        <time>2013-09-20T12:22:50Z</time>
      </trkpt>
      <trkpt lat="45.33084" lon="6.0648">
        <ele>1640.15</ele>
        <time>2013-09-20T12:23:09Z</time>
      </trkpt>
      <trkpt lat="45.33096" lon="6.06541">
        <ele>1635.34</ele>
        <time>2013-09-20T12:23:21Z</time>
      </trkpt>
      <trkpt lat="45.33121" lon="6.06555">
        <ele>1634.86</ele>
        <time>2013-09-20T12:24:09Z</time>
      </trkpt>
      <trkpt lat="45.33161" lon="6.06517">
        <ele>1625.25</ele>
        <time>2013-09-20T12:24:40Z</time>
      </trkpt>
      <trkpt lat="45.33206" lon="6.06526">
        <ele>1615.15</ele>
        <time>2013-09-20T12:24:58Z</time>
      </trkpt>
      <trkpt lat="45.33263" lon="6.06525">
        <ele>1614.19</ele>
        <time>2013-09-20T12:25:49Z</time>
      </trkpt>
      <trkpt lat="45.33292" lon="6.06576">
        <ele>1608.9</ele>
        <time>2013-09-20T12:26:12Z</time>
      </trkpt>
      <trkpt lat="45.33327" lon="6.06631">
        <ele>1606.02</ele>
        <time>2013-09-20T12:26:51Z</time>
      </trkpt>
      <trkpt lat="45.33388" lon="6.06635">
        <ele>1599.29</ele>
        <time>2013-09-20T12:27:13Z</time>
      </trkpt>
      <trkpt lat="45.3342" lon="6.06681">
        <ele>1596.41</ele>
        <time>2013-09-20T12:27:27Z</time>
      </trkpt>
      <trkpt lat="45.33461" lon="6.06694">
        <ele>1584.87</ele>
        <time>2013-09-20T12:27:51Z</time>
      </trkpt>
      <trkpt lat="45.33516" lon="6.06709">
        <ele>1578.62</ele>
        <time>2013-09-20T12:28:05Z</time>
      </trkpt>
      <trkpt lat="45.3356" lon="6.06691">
        <ele>1576.22</ele>
        <time>2013-09-20T12:28:33Z</time>
      </trkpt>
      <trkpt lat="45.33596" lon="6.06738">
        <ele>1571.41</ele>
        <time>2013-09-20T12:28:41Z</time>
      </trkpt>
      <trkpt lat="45.33636" lon="6.06757">
        <ele>1575.74</ele>
        <time>2013-09-20T12:29:11Z</time>
      </trkpt>
      <trkpt lat="45.33698" lon="6.06814">
        <ele>1577.18</ele>
        <time>2013-09-20T12:29:49Z</time>
      </trkpt>
      <trkpt lat="45.33745" lon="6.06831">
        <ele>1571.41</ele>
        <time>2013-09-20T12:30:32Z</time>
      </trkpt>
      <trkpt lat="45.33802" lon="6.06889">
        <ele>1580.06</ele>
        <time>2013-09-20T12:31:20Z</time>
      </trkpt>
      <trkpt lat="45.33863" lon="6.0692">
        <ele>1579.1</ele>
        <time>2013-09-20T12:31:57Z</time>
      </trkpt>
      <trkpt lat="45.3391" lon="6.06968">
        <ele>1575.26</ele>
        <time>2013-09-20T12:32:13Z</time>
      </trkpt>
      <trkpt lat="45.33944" lon="6.07014">
        <ele>1575.26</ele>
        <time>2013-09-20T12:32:28Z</time>
      </trkpt>
      <trkpt lat="45.33986" lon="6.07056">
        <ele>1578.14</ele>
        <time>2013-09-20T12:32:48Z</time>
      </trkpt>
      <trkpt lat="45.3405" lon="6.0708">
        <ele>1579.1</ele>
        <time>2013-09-20T12:33:20Z</time>
      </trkpt>
      <trkpt lat="45.34111" lon="6.07055">
        <ele>1581.03</ele>
        <time>2013-09-20T12:33:50Z</time>
      </trkpt>
      <trkpt lat="45.34155" lon="6.07008">
        <ele>1580.54</ele>
        <time>2013-09-20T12:34:15Z</time>
      </trkpt>
      <trkpt lat="45.34184" lon="6.06947">
        <ele>1573.82</ele>
        <time>2013-09-20T12:34:32Z</time>
      </trkpt>
      <trkpt lat="45.34197" lon="6.06878">
        <ele>1573.33</ele>
        <time>2013-09-20T12:34:49Z</time>
      </trkpt>
      <trkpt lat="45.34244" lon="6.06861">
        <ele>1567.57</ele>
        <time>2013-09-20T12:39:28Z</time>
      </trkpt>
      <trkpt lat="45.34288" lon="6.06877">
        <ele>1561.32</ele>
        <time>2013-09-20T12:39:35Z</time>
      </trkpt>
      <trkpt lat="45.34333" lon="6.06896">
        <ele>1558.43</ele>
        <time>2013-09-20T12:39:43Z</time>
      </trkpt>
      <trkpt lat="45.34384" lon="6.069">
        <ele>1556.03</ele>
        <time>2013-09-20T12:39:55Z</time>
      </trkpt>
      <trkpt lat="45.3443" lon="6.06899">
        <ele>1547.38</ele>
        <time>2013-09-20T12:40:01Z</time>
      </trkpt>
      <trkpt lat="45.34475" lon="6.06885">
        <ele>1543.05</ele>
        <time>2013-09-20T12:40:08Z</time>
      </trkpt>
      <trkpt lat="45.34519" lon="6.06916">
        <ele>1540.17</ele>
        <time>2013-09-20T12:40:23Z</time>
      </trkpt>
      <trkpt lat="45.34553" lon="6.06911">
        <ele>1532.96</ele>
        <time>2013-09-20T12:40:46Z</time>
      </trkpt>
      <trkpt lat="45.34522" lon="6.06865">
        <ele>1534.4</ele>
        <time>2013-09-20T12:41:05Z</time>
      </trkpt>
      <trkpt lat="45.34471" lon="6.06822">
        <ele>1532.48</ele>
        <time>2013-09-20T12:41:24Z</time>
      </trkpt>
      <trkpt lat="45.34424" lon="6.06808">
        <ele>1530.08</ele>
        <time>2013-09-20T12:41:35Z</time>
      </trkpt>
      <trkpt lat="45.34394" lon="6.06755">
        <ele>1515.66</ele>
        <time>2013-09-20T12:41:49Z</time>
      </trkpt>
      <trkpt lat="45.34366" lon="6.06697">
        <ele>1504.12</ele>
        <time>2013-09-20T12:42:44Z</time>
      </trkpt>
      <trkpt lat="45.34318" lon="6.06667">
        <ele>1501.24</ele>
        <time>2013-09-20T12:44:54Z</time>
      </trkpt>
      <trkpt lat="45.34289" lon="6.06576">
        <ele>1482.49</ele>
        <time>2013-09-20T12:55:27Z</time>
      </trkpt>
      <trkpt lat="45.34267" lon="6.06487">
        <ele>1461.82</ele>
        <time>2013-09-20T12:56:22Z</time>
      </trkpt>
      <trkpt lat="45.34264" lon="6.06402">
        <ele>1442.11</ele>
        <time>2013-09-20T12:56:55Z</time>
      </trkpt>
      <trkpt lat="45.34212" lon="6.06343">
        <ele>1424.81</ele>
        <time>2013-09-20T12:57:25Z</time>
      </trkpt>
      <trkpt lat="45.34158" lon="6.06314">
        <ele>1405.58</ele>
        <time>2013-09-20T12:57:55Z</time>
      </trkpt>
      <trkpt lat="45.3411" lon="6.06299">
        <ele>1405.58</ele>
        <time>2013-09-20T12:58:05Z</time>
      </trkpt>
      <trkpt lat="45.34074" lon="6.06255">
        <ele>1396.45</ele>
        <time>2013-09-20T12:58:21Z</time>
      </trkpt>
      <trkpt lat="45.34052" lon="6.06182">
        <ele>1378.67</ele>
        <time>2013-09-20T12:58:35Z</time>
      </trkpt>
      <trkpt lat="45.34006" lon="6.06133">
        <ele>1361.84</ele>
        <time>2013-09-20T12:58:48Z</time>
      </trkpt>
      <trkpt lat="45.33961" lon="6.06097">
        <ele>1347.43</ele>
        <time>2013-09-20T12:58:57Z</time>
      </trkpt>
      <trkpt lat="45.33946" lon="6.06028">
        <ele>1339.25</ele>
        <time>2013-09-20T12:59:35Z</time>
      </trkpt>
      <trkpt lat="45.33932" lon="6.05956">
        <ele>1328.68</ele>
        <time>2013-09-20T12:59:50Z</time>
      </trkpt>
      <trkpt lat="45.33895" lon="6.05896">
        <ele>1325.31</ele>
        <time>2013-09-20T12:59:57Z</time>
      </trkpt>
      <trkpt lat="45.33876" lon="6.05831">
        <ele>1324.35</ele>
        <time>2013-09-20T13:00:05Z</time>
      </trkpt>
      <trkpt lat="45.33873" lon="6.05826">
        <ele>1324.35</ele>
        <time>2013-09-20T13:00:23Z</time>
      </trkpt>
      <trkpt lat="45.33889" lon="6.05878">
        <ele>1323.87</ele>
        <time>2013-09-20T13:00:41Z</time>
      </trkpt>
      <trkpt lat="45.33918" lon="6.05831">
        <ele>1313.78</ele>
        <time>2013-09-20T13:00:53Z</time>
      </trkpt>
      <trkpt lat="45.33932" lon="6.0577">
        <ele>1304.65</ele>
        <time>2013-09-20T13:01:05Z</time>
      </trkpt>
      <trkpt lat="45.3395" lon="6.05705">
        <ele>1301.76</ele>
        <time>2013-09-20T13:01:19Z</time>
      </trkpt>
      <trkpt lat="45.33954" lon="6.05646">
        <ele>1294.55</ele>
        <time>2013-09-20T13:01:43Z</time>
      </trkpt>
      <trkpt lat="45.33944" lon="6.05583">
        <ele>1288.78</ele>
        <time>2013-09-20T13:01:54Z</time>
      </trkpt>
      <trkpt lat="45.33956" lon="6.05516">
        <ele>1279.65</ele>
        <time>2013-09-20T13:02:04Z</time>
      </trkpt>
      <trkpt lat="45.33984" lon="6.05456">
        <ele>1270.52</ele>
        <time>2013-09-20T13:02:14Z</time>
      </trkpt>
      <trkpt lat="45.33989" lon="6.05391">
        <ele>1261.39</ele>
        <time>2013-09-20T13:02:22Z</time>
      </trkpt>
      <trkpt lat="45.33998" lon="6.05328">
        <ele>1259.94</ele>
        <time>2013-09-20T13:02:58Z</time>
      </trkpt>
      <trkpt lat="45.34005" lon="6.05261">
        <ele>1261.87</ele>
        <time>2013-09-20T13:03:16Z</time>
      </trkpt>
      <trkpt lat="45.34025" lon="6.052">
        <ele>1264.75</ele>
        <time>2013-09-20T13:03:34Z</time>
      </trkpt>
      <trkpt lat="45.34037" lon="6.0514">
        <ele>1262.35</ele>
        <time>2013-09-20T13:03:50Z</time>
      </trkpt>
      <trkpt lat="45.34026" lon="6.0507">
        <ele>1258.5</ele>
        <time>2013-09-20T13:03:57Z</time>
      </trkpt>
      <trkpt lat="45.34005" lon="6.05007">
        <ele>1254.66</ele>
        <time>2013-09-20T13:04:03Z</time>
      </trkpt>
      <trkpt lat="45.33976" lon="6.04947">
        <ele>1250.33</ele>
        <time>2013-09-20T13:04:09Z</time>
      </trkpt>
      <trkpt lat="45.33948" lon="6.04885">
        <ele>1244.08</ele>
        <time>2013-09-20T13:04:14Z</time>
      </trkpt>
      <trkpt lat="45.3392" lon="6.04832">
        <ele>1241.2</ele>
        <time>2013-09-20T13:04:18Z</time>
      </trkpt>
      <trkpt lat="45.33882" lon="6.04788">
        <ele>1234.95</ele>
        <time>2013-09-20T13:04:22Z</time>
      </trkpt>
      <trkpt lat="45.33836" lon="6.04755">
        <ele>1230.62</ele>
        <time>2013-09-20T13:04:26Z</time>
      </trkpt>
      <trkpt lat="45.33784" lon="6.04742">
        <ele>1225.34</ele>
        <time>2013-09-20T13:04:30Z</time>
      </trkpt>
      <trkpt lat="45.3373" lon="6.04732">
        <ele>1220.05</ele>
        <time>2013-09-20T13:04:34Z</time>
      </trkpt>
      <trkpt lat="45.33683" lon="6.04695">
        <ele>1214.76</ele>
        <time>2013-09-20T13:04:38Z</time>
      </trkpt>
      <trkpt lat="45.3364" lon="6.04654">
        <ele>1209</ele>
        <time>2013-09-20T13:04:42Z</time>
      </trkpt>
      <trkpt lat="45.33616" lon="6.04593">
        <ele>1203.71</ele>
        <time>2013-09-20T13:04:46Z</time>
      </trkpt>
      <trkpt lat="45.3358" lon="6.04544">
        <ele>1200.34</ele>
        <time>2013-09-20T13:04:50Z</time>
      </trkpt>
      <trkpt lat="45.33532" lon="6.04511">
        <ele>1194.58</ele>
        <time>2013-09-20T13:04:54Z</time>
      </trkpt>
      <trkpt lat="45.33492" lon="6.04461">
        <ele>1188.81</ele>
        <time>2013-09-20T13:04:58Z</time>
      </trkpt>
      <trkpt lat="45.33472" lon="6.0439">
        <ele>1183.52</ele>
        <time>2013-09-20T13:05:02Z</time>
      </trkpt>
      <trkpt lat="45.33448" lon="6.04334">
        <ele>1180.16</ele>
        <time>2013-09-20T13:05:06Z</time>
      </trkpt>
      <trkpt lat="45.33411" lon="6.04298">
        <ele>1175.35</ele>
        <time>2013-09-20T13:05:16Z</time>
      </trkpt>
      <trkpt lat="45.33369" lon="6.04275">
        <ele>1170.06</ele>
        <time>2013-09-20T13:05:24Z</time>
      </trkpt>
      <trkpt lat="45.33332" lon="6.04235">
        <ele>1165.74</ele>
        <time>2013-09-20T13:05:30Z</time>
      </trkpt>
      <trkpt lat="45.33286" lon="6.04223">
        <ele>1160.93</ele>
        <time>2013-09-20T13:05:36Z</time>
      </trkpt>
      <trkpt lat="45.33247" lon="6.04172">
        <ele>1155.16</ele>
        <time>2013-09-20T13:05:42Z</time>
      </trkpt>
      <trkpt lat="45.332" lon="6.04169">
        <ele>1149.39</ele>
        <time>2013-09-20T13:05:46Z</time>
      </trkpt>
      <trkpt lat="45.33153" lon="6.04161">
        <ele>1143.63</ele>
        <time>2013-09-20T13:05:50Z</time>
      </trkpt>
      <trkpt lat="45.33111" lon="6.04137">
        <ele>1140.74</ele>
        <time>2013-09-20T13:05:54Z</time>
      </trkpt>
      <trkpt lat="45.33105" lon="6.04083">
        <ele>1139.78</ele>
        <time>2013-09-20T13:05:59Z</time>
      </trkpt>
      <trkpt lat="45.33151" lon="6.04062">
        <ele>1141.7</ele>
        <time>2013-09-20T13:06:10Z</time>
      </trkpt>
      <trkpt lat="45.33146" lon="6.03993">
        <ele>1140.74</ele>
        <time>2013-09-20T13:06:21Z</time>
      </trkpt>
      <trkpt lat="45.33126" lon="6.03929">
        <ele>1137.38</ele>
        <time>2013-09-20T13:06:29Z</time>
      </trkpt>
      <trkpt lat="45.33108" lon="6.03869">
        <ele>1135.94</ele>
        <time>2013-09-20T13:06:36Z</time>
      </trkpt>
      <trkpt lat="45.33087" lon="6.0381">
        <ele>1134.49</ele>
        <time>2013-09-20T13:06:43Z</time>
      </trkpt>
      <trkpt lat="45.33069" lon="6.03747">
        <ele>1134.01</ele>
        <time>2013-09-20T13:06:50Z</time>
      </trkpt>
      <trkpt lat="45.33048" lon="6.03682">
        <ele>1133.53</ele>
        <time>2013-09-20T13:06:57Z</time>
      </trkpt>
      <trkpt lat="45.33037" lon="6.03614">
        <ele>1131.61</ele>
        <time>2013-09-20T13:07:04Z</time>
      </trkpt>
      <trkpt lat="45.33037" lon="6.03545">
        <ele>1131.13</ele>
        <time>2013-09-20T13:07:11Z</time>
      </trkpt>
      <trkpt lat="45.33034" lon="6.0348">
        <ele>1127.28</ele>
        <time>2013-09-20T13:07:17Z</time>
      </trkpt>
      <trkpt lat="45.33058" lon="6.03418">
        <ele>1123.44</ele>
        <time>2013-09-20T13:07:25Z</time>
      </trkpt>
      <trkpt lat="45.33095" lon="6.03368">
        <ele>1120.07</ele>
        <time>2013-09-20T13:07:31Z</time>
      </trkpt>
      <trkpt lat="45.3313" lon="6.03315">
        <ele>1115.27</ele>
        <time>2013-09-20T13:07:36Z</time>
      </trkpt>
      <trkpt lat="45.33183" lon="6.03296">
        <ele>1109.02</ele>
        <time>2013-09-20T13:07:41Z</time>
      </trkpt>
      <trkpt lat="45.3323" lon="6.03304">
        <ele>1105.17</ele>
        <time>2013-09-20T13:07:45Z</time>
      </trkpt>
      <trkpt lat="45.33264" lon="6.0327">
        <ele>1101.81</ele>
        <time>2013-09-20T13:07:50Z</time>
      </trkpt>
      <trkpt lat="45.3325" lon="6.032">
        <ele>1097</ele>
        <time>2013-09-20T13:07:56Z</time>
      </trkpt>
      <trkpt lat="45.33265" lon="6.03134">
        <ele>1092.68</ele>
        <time>2013-09-20T13:08:01Z</time>
      </trkpt>
      <trkpt lat="45.33266" lon="6.03065">
        <ele>1088.35</ele>
        <time>2013-09-20T13:08:06Z</time>
      </trkpt>
      <trkpt lat="45.33248" lon="6.02997">
        <ele>1084.99</ele>
        <time>2013-09-20T13:08:11Z</time>
      </trkpt>
      <trkpt lat="45.33234" lon="6.02926">
        <ele>1081.62</ele>
        <time>2013-09-20T13:08:16Z</time>
      </trkpt>
      <trkpt lat="45.33211" lon="6.02857">
        <ele>1076.81</ele>
        <time>2013-09-20T13:08:21Z</time>
      </trkpt>
    </trkseg>
  </trk>
</gpx>